Iliamna Airport
PAIL : now visible

Aeroporto :











RITROVATECI SU...

 
LOGIN :

Iscrizione | Disclaimer

   EN    FR    IT 

 









Sommario :    VFR   VFR Marginale   IFR   IFR Intensivo   IFR Molto Intensivo
Visibilità : 
Base nubi : 
>= 8 km
>= 3000ft
5 / 8 km
1000 / 3000 ft
1500m / 5 km
500 / 1000 ft
800 / 1500m
200 / 500 ft
< 800m
< 200 ft
Simboli :   Temporali  Nebbia  Neve Forte  Precipitazioni Forti  Vento > 20 kt






- Altitudine del aeroporto : 192 ft
- Codice IATA : ILI


PAIL - Iliamna

ULTIMO METAR :
  • 011953Z 00000KT 10SM BKN065 BKN080 12/04 A2957 RMK AO2 SLP013 T01220044

METARs OBSOLETI :
  • 011853Z VRB04KT 10SM BKN055 BKN070 12/05 A2957 RMK AO2 SLP014 T01170050
  • 011753Z 05006KT 10SM BKN070 12/05 A2956 RMK AO2 SLP010 T01170050 10117 20044 56004

TAF PAIL
Valido dal 01 a 18 ore il 02 a 18 ore UTC


011728Z 0118/0218 VRB06KT P6SM BKN100
FM012000 10010G20KT P6SM VCSH BKN050
FM020900 06005KT P6SM BKN050
FIR PAZA / America del Nord



MetMap, La meteo Aeronautica in un colpo d'occhio ! - Copyright ORBIFLY Dicembre 2007 - Disclaimer

ORBIFLY MET'MAP TEAM :

Programmazione e sviluppo : Alexandra Zaïnal
Concezione : Baudouin d'Aumeries
Aiuto per la programmazione : Marc-Olivier Méhu
Supporto tecnico e logistico : Manuel Goepfert
Aiuto per la traduzione : Arnaldo La Scala

Contatto : metmap@orbifly.com




FONTI E CREDITI :

   NOAA       Earth
Advisory